createdAt,value
2023-04-06T00:02:08.944Z,62.30
2023-04-06T00:04:37.063Z,62.30
2023-04-06T00:07:05.360Z,62.40
2023-04-06T00:09:33.389Z,62.50
2023-04-06T00:12:01.429Z,62.70
2023-04-06T00:14:29.448Z,62.60
2023-04-06T00:16:57.845Z,63.30
2023-04-06T00:19:27.222Z,62.30
2023-04-06T00:21:55.266Z,62.00
2023-04-06T00:24:23.319Z,62.20
2023-04-06T00:26:51.339Z,62.20
2023-04-06T00:29:19.333Z,62.40
2023-04-06T00:31:47.407Z,62.20
2023-04-06T00:34:15.947Z,62.30
2023-04-06T00:36:45.410Z,62.40
2023-04-06T00:39:13.460Z,62.40
2023-04-06T00:41:41.582Z,62.50
2023-04-06T00:44:09.591Z,62.70
2023-04-06T00:46:37.822Z,62.40
2023-04-06T00:49:06.232Z,62.50
2023-04-06T00:51:34.484Z,62.50
2023-04-06T00:54:03.896Z,62.60
2023-04-06T00:56:34.115Z,63.40
2023-04-06T00:59:02.199Z,62.80
2023-04-06T01:01:33.492Z,62.70
2023-04-06T01:04:08.647Z,62.50
2023-04-06T01:06:42.725Z,62.20
2023-04-06T01:09:12.290Z,61.90
2023-04-06T01:11:40.782Z,61.90
2023-04-06T01:14:12.197Z,62.20
2023-04-06T01:16:55.438Z,62.10
2023-04-06T01:19:28.557Z,61.90
2023-04-06T01:21:57.445Z,62.10
2023-04-06T01:24:47.116Z,62.10
2023-04-06T01:27:24.336Z,62.30
2023-04-06T01:30:05.628Z,62.50
2023-04-06T01:32:52.361Z,62.30
2023-04-06T01:35:32.434Z,62.30
2023-04-06T01:38:11.918Z,62.30
2023-04-06T01:40:41.566Z,62.30
2023-04-06T01:43:11.165Z,62.40
2023-04-06T01:45:51.939Z,62.50
2023-04-06T01:48:22.571Z,62.40
2023-04-06T01:50:51.946Z,62.20
2023-04-06T01:53:26.222Z,61.90
2023-04-06T01:56:02.295Z,61.70
2023-04-06T01:58:38.217Z,61.80
2023-04-06T02:01:06.527Z,62.10
2023-04-06T02:03:47.843Z,61.90
2023-04-06T02:06:16.112Z,62.00
2023-04-06T02:08:44.139Z,62.00
2023-04-06T02:11:13.787Z,62.10
2023-04-06T02:13:47.148Z,62.30
2023-04-06T02:16:16.928Z,62.30
2023-04-06T02:18:47.055Z,62.20
2023-04-06T02:21:18.503Z,62.30
2023-04-06T02:23:46.708Z,62.20
2023-04-06T02:26:16.537Z,62.30
2023-04-06T02:28:44.579Z,62.40
2023-04-06T02:31:12.623Z,62.50
2023-04-06T02:33:40.876Z,62.40
2023-04-06T02:36:09.747Z,62.20
2023-04-06T02:38:37.855Z,62.50
2023-04-06T02:41:06.006Z,61.90
2023-04-06T02:43:35.957Z,61.90
2023-04-06T02:46:11.789Z,62.80
2023-04-06T02:48:40.810Z,61.90
2023-04-06T02:51:08.840Z,62.00
2023-04-06T02:53:38.226Z,62.10
2023-04-06T02:56:08.027Z,62.30
2023-04-06T02:58:48.918Z,62.20
2023-04-06T03:01:17.676Z,62.40
2023-04-06T03:03:54.116Z,62.30
2023-04-06T03:06:27.368Z,62.00
2023-04-06T03:08:59.355Z,61.80
2023-04-06T03:11:27.781Z,61.80
2023-04-06T03:13:57.241Z,62.00
2023-04-06T03:16:25.606Z,62.30
2023-04-06T03:18:54.254Z,62.00
2023-04-06T03:21:23.232Z,62.10
2023-04-06T03:23:53.715Z,62.20
2023-04-06T03:26:23.104Z,62.20
2023-04-06T03:28:53.068Z,62.30
2023-04-06T03:31:26.495Z,62.50
2023-04-06T03:34:00.116Z,62.20
2023-04-06T03:36:32.441Z,62.30
2023-04-06T03:39:01.547Z,62.30
2023-04-06T03:41:32.179Z,62.40
2023-04-06T03:44:09.651Z,62.50
2023-04-06T03:46:40.119Z,62.50
2023-04-06T03:49:09.474Z,62.40
2023-04-06T03:51:39.582Z,62.10
2023-04-06T03:54:07.676Z,61.60
2023-04-06T03:56:37.396Z,61.60
2023-04-06T03:59:05.552Z,61.80
2023-04-06T04:01:33.686Z,61.90
2023-04-06T04:04:03.342Z,61.60
2023-04-06T04:06:37.706Z,61.60
2023-04-06T04:09:06.499Z,61.90
2023-04-06T04:11:34.774Z,61.90
2023-04-06T04:14:02.848Z,62.00
2023-04-06T04:16:31.096Z,62.20
2023-04-06T04:19:00.025Z,61.90
2023-04-06T04:21:31.635Z,62.70
2023-04-06T04:24:02.644Z,62.00
2023-04-06T04:26:30.731Z,62.20
2023-04-06T04:28:58.807Z,62.20
2023-04-06T04:31:26.862Z,62.20
2023-04-06T04:33:59.999Z,62.20
2023-04-06T04:36:33.514Z,62.00
2023-04-06T04:39:05.996Z,61.80
2023-04-06T04:41:38.948Z,61.40
2023-04-06T04:44:10.407Z,61.50
2023-04-06T04:46:38.450Z,61.80
2023-04-06T04:49:07.654Z,61.70
2023-04-06T04:51:37.755Z,61.70
2023-04-06T04:54:10.363Z,61.70
2023-04-06T04:56:42.457Z,61.90
2023-04-06T04:59:36.665Z,62.00
2023-04-06T05:02:16.727Z,62.10
2023-04-06T05:05:02.713Z,62.00
2023-04-06T05:07:33.052Z,62.00
2023-04-06T05:10:02.403Z,62.10
2023-04-06T05:12:35.755Z,62.20
2023-04-06T05:15:09.044Z,62.20
2023-04-06T05:17:37.156Z,62.40
2023-04-06T05:20:07.300Z,62.30
2023-04-06T05:22:43.877Z,62.00
2023-04-06T05:25:12.713Z,61.70
2023-04-06T05:27:41.675Z,61.70
2023-04-06T05:30:20.731Z,61.80
2023-04-06T05:32:50.649Z,62.20
2023-04-06T05:35:19.383Z,61.90
2023-04-06T05:37:53.376Z,61.80
2023-04-06T05:40:25.523Z,62.00
2023-04-06T05:42:53.548Z,61.90
2023-04-06T05:45:22.528Z,62.70
2023-04-06T05:47:55.425Z,62.20
2023-04-06T05:50:32.793Z,61.80
2023-04-06T05:53:02.706Z,61.80
2023-04-06T05:55:38.680Z,61.90
2023-04-06T05:58:12.631Z,61.90
2023-04-06T06:00:40.685Z,61.90
2023-04-06T06:03:10.908Z,62.00
2023-04-06T06:05:41.988Z,61.90
2023-04-06T06:08:16.693Z,61.60
2023-04-06T06:10:46.330Z,61.20
2023-04-06T06:13:15.479Z,61.00
2023-04-06T06:15:44.091Z,61.10
2023-04-06T06:18:12.168Z,61.50
2023-04-06T06:20:40.743Z,61.20
2023-04-06T06:23:08.782Z,61.20
2023-04-06T06:25:39.314Z,61.30
2023-04-06T06:28:07.734Z,61.50
2023-04-06T06:30:36.787Z,61.60
2023-04-06T06:33:06.828Z,61.80
2023-04-06T06:35:34.974Z,61.70
2023-04-06T06:38:05.513Z,61.70
2023-04-06T06:40:35.379Z,61.70
2023-04-06T06:43:07.900Z,61.90
2023-04-06T06:45:47.585Z,61.90
2023-04-06T06:48:18.941Z,62.00
2023-04-06T06:50:46.963Z,62.00
2023-04-06T06:53:15.748Z,61.80
2023-04-06T06:55:45.136Z,61.50
2023-04-06T06:58:14.588Z,61.40
2023-04-06T07:00:42.701Z,62.20
2023-04-06T07:03:11.068Z,61.80
2023-04-06T07:05:41.328Z,61.70
2023-04-06T07:08:09.533Z,61.70
2023-04-06T07:10:37.645Z,62.60
2023-04-06T07:13:05.760Z,61.90
2023-04-06T07:15:35.997Z,61.90
2023-04-06T07:18:04.144Z,62.30
2023-04-06T07:20:32.241Z,62.00
2023-04-06T07:23:00.692Z,62.00
2023-04-06T07:25:28.926Z,62.10
2023-04-06T07:27:57.005Z,62.20
2023-04-06T07:30:27.251Z,62.20
2023-04-06T07:32:57.582Z,62.20
2023-04-06T07:35:27.015Z,62.10
2023-04-06T07:37:55.554Z,62.80
2023-04-06T07:40:23.694Z,62.10
2023-04-06T07:42:52.297Z,62.20
2023-04-06T07:45:21.117Z,62.20
2023-04-06T07:47:49.703Z,62.20
2023-04-06T07:50:19.513Z,62.20
2023-04-06T07:52:47.653Z,62.00
2023-04-06T07:55:16.622Z,61.70
2023-04-06T07:57:45.000Z,61.40
2023-04-06T08:00:14.027Z,61.30
2023-04-06T08:02:42.210Z,61.40
2023-04-06T08:05:11.136Z,61.60
2023-04-06T08:07:40.668Z,61.50
2023-04-06T08:10:09.024Z,61.60
2023-04-06T08:12:37.039Z,61.70
2023-04-06T08:15:05.798Z,61.90
2023-04-06T08:17:34.963Z,62.70
2023-04-06T08:20:04.315Z,62.10
2023-04-06T08:22:33.953Z,62.00
2023-04-06T08:25:03.301Z,62.10
2023-04-06T08:27:31.347Z,62.20
2023-04-06T08:29:59.381Z,62.30
2023-04-06T08:32:27.661Z,62.30
2023-04-06T08:34:55.968Z,62.40
2023-04-06T08:37:23.988Z,62.30
2023-04-06T08:39:52.773Z,62.20
2023-04-06T08:42:23.270Z,62.30
2023-04-06T08:44:52.228Z,62.40
2023-04-06T08:47:23.094Z,62.50
2023-04-06T08:49:52.971Z,62.60
2023-04-06T08:52:21.003Z,62.50
2023-04-06T08:54:49.227Z,62.40
2023-04-06T08:57:17.253Z,62.00
2023-04-06T08:59:46.686Z,61.80
2023-04-06T09:02:18.134Z,61.80
2023-04-06T09:04:46.670Z,61.80
2023-04-06T09:07:14.837Z,61.20
2023-04-06T09:09:48.583Z,61.30
2023-04-06T09:12:25.072Z,61.50
2023-04-06T09:14:54.554Z,61.20
2023-04-06T09:17:23.382Z,61.60
2023-04-06T09:19:51.888Z,59.90
2023-04-06T09:22:20.431Z,59.10
2023-04-06T09:24:49.099Z,59.10
2023-04-06T09:27:17.178Z,59.10
2023-04-06T09:29:45.505Z,59.10
2023-04-06T09:32:17.727Z,59.20
2023-04-06T09:34:50.859Z,59.20
2023-04-06T09:37:19.993Z,58.00
2023-04-06T09:39:48.408Z,58.20
2023-04-06T09:42:26.112Z,58.30
2023-04-06T09:44:54.145Z,58.40
2023-04-06T09:47:25.789Z,58.60
2023-04-06T09:49:58.076Z,58.80
2023-04-06T09:52:27.215Z,58.80
2023-04-06T09:54:55.616Z,59.00
2023-04-06T09:57:26.203Z,59.80
2023-04-06T09:59:58.937Z,59.90
2023-04-06T10:02:31.076Z,59.50
2023-04-06T10:05:00.971Z,59.60
2023-04-06T10:07:29.097Z,59.40
2023-04-06T10:09:57.095Z,59.60
2023-04-06T10:12:25.173Z,59.70
2023-04-06T10:14:53.366Z,59.80
2023-04-06T10:17:21.533Z,59.80
2023-04-06T10:20:04.752Z,59.90
2023-04-06T10:22:36.974Z,59.80
2023-04-06T10:25:05.670Z,59.60
2023-04-06T10:27:33.668Z,59.70
2023-04-06T10:30:05.389Z,59.50
2023-04-06T10:32:37.828Z,59.60
2023-04-06T10:35:11.662Z,59.90
2023-04-06T10:37:51.297Z,60.40
2023-04-06T10:40:26.937Z,59.80
2023-04-06T10:42:55.462Z,60.10
2023-04-06T10:45:24.732Z,60.20
2023-04-06T10:47:54.294Z,60.30
2023-04-06T10:50:23.997Z,60.30
2023-04-06T10:53:00.881Z,60.30
2023-04-06T10:55:29.680Z,60.30
2023-04-06T10:57:57.792Z,60.50
2023-04-06T11:00:33.243Z,60.60
2023-04-06T11:03:07.682Z,60.70
2023-04-06T11:05:37.769Z,60.80
2023-04-06T11:08:06.064Z,60.80
2023-04-06T11:10:34.119Z,60.60
2023-04-06T11:13:03.373Z,60.40
2023-04-06T11:15:38.104Z,60.60
2023-04-06T11:18:07.584Z,60.70
2023-04-06T11:20:37.179Z,60.80
2023-04-06T11:23:07.431Z,60.80
2023-04-06T11:25:35.504Z,60.80
2023-04-06T11:28:03.933Z,60.90
2023-04-06T11:30:32.043Z,61.00
2023-04-06T11:33:03.285Z,61.00
2023-04-06T11:35:31.441Z,61.20
2023-04-06T11:38:00.991Z,60.80
2023-04-06T11:40:30.619Z,60.60
2023-04-06T11:42:58.706Z,60.50
2023-04-06T11:45:27.157Z,60.50
2023-04-06T11:48:00.278Z,60.60
2023-04-06T11:50:34.057Z,60.70
2023-04-06T11:53:03.955Z,60.60
2023-04-06T11:55:38.680Z,60.70
2023-04-06T11:58:08.049Z,60.90
2023-04-06T12:00:38.203Z,61.00
2023-04-06T12:03:06.993Z,61.00
2023-04-06T12:05:35.639Z,61.20
2023-04-06T12:08:05.164Z,61.20
2023-04-06T12:10:33.283Z,61.20
2023-04-06T12:13:01.801Z,61.30
2023-04-06T12:15:29.914Z,61.30
2023-04-06T12:17:58.107Z,61.20
2023-04-06T12:20:27.520Z,61.30
2023-04-06T12:22:55.971Z,61.30
2023-04-06T12:25:25.584Z,61.20
2023-04-06T12:27:53.636Z,61.00
2023-04-06T12:30:22.040Z,61.00
2023-04-06T12:32:51.182Z,61.10
2023-04-06T12:35:19.645Z,61.10
2023-04-06T12:37:47.680Z,61.20
2023-04-06T12:40:16.015Z,61.20
2023-04-06T12:42:46.768Z,61.30
2023-04-06T12:45:14.899Z,61.50
2023-04-06T12:47:43.180Z,61.60
2023-04-06T12:50:11.747Z,61.70
2023-04-06T12:52:39.812Z,61.70
2023-04-06T12:55:08.796Z,61.70
2023-04-06T12:57:38.134Z,61.90
2023-04-06T13:00:09.771Z,61.90
2023-04-06T13:02:38.042Z,62.00
2023-04-06T13:05:06.685Z,61.90
2023-04-06T13:07:34.805Z,61.90
2023-04-06T13:10:04.800Z,61.80
2023-04-06T13:12:33.085Z,62.20
2023-04-06T13:15:01.205Z,61.20
2023-04-06T13:17:31.368Z,61.00
2023-04-06T13:19:59.808Z,61.10
2023-04-06T13:22:28.514Z,61.90
2023-04-06T13:24:57.008Z,61.60
2023-04-06T13:27:25.459Z,61.30
2023-04-06T13:29:53.533Z,61.40
2023-04-06T13:32:22.271Z,61.60
2023-04-06T13:34:54.121Z,61.70
2023-04-06T13:37:22.359Z,61.80
2023-04-06T13:39:52.362Z,61.80
2023-04-06T13:42:20.861Z,61.90
2023-04-06T13:44:49.065Z,61.90
2023-04-06T13:47:20.639Z,61.90
2023-04-06T13:49:49.130Z,62.00
2023-04-06T13:52:19.489Z,61.90
2023-04-06T13:54:47.542Z,61.90
2023-04-06T13:57:15.507Z,61.90
2023-04-06T14:02:12.846Z,61.50
2023-04-06T14:04:41.054Z,61.40
2023-04-06T14:07:09.661Z,61.50
2023-04-06T14:09:39.112Z,61.50
2023-04-06T14:12:12.588Z,61.30
2023-04-06T14:14:40.537Z,61.50
2023-04-06T14:17:08.534Z,61.50
2023-04-06T14:19:37.190Z,61.60
2023-04-06T14:22:05.610Z,61.70
2023-04-06T14:24:33.600Z,61.70
2023-04-06T14:27:03.668Z,61.70
2023-04-06T14:29:32.613Z,61.80
2023-04-06T14:32:01.710Z,61.90
2023-04-06T14:34:29.734Z,61.90
2023-04-06T14:36:57.769Z,61.90
2023-04-06T14:39:26.064Z,61.90
2023-04-06T14:41:54.030Z,61.90
2023-04-06T14:44:23.489Z,61.90
2023-04-06T14:46:51.917Z,61.60
2023-04-06T14:49:19.964Z,61.50
2023-04-06T14:51:48.490Z,61.60
2023-04-06T14:54:16.578Z,61.70
2023-04-06T14:56:44.817Z,61.60
2023-04-06T14:59:12.816Z,61.60
2023-04-06T15:01:42.266Z,61.80
2023-04-06T15:04:10.505Z,61.90
2023-04-06T15:06:40.369Z,61.90
2023-04-06T15:09:08.403Z,62.00
2023-04-06T15:11:36.381Z,62.10
2023-04-06T15:14:04.335Z,62.00
2023-04-06T15:16:33.645Z,62.10
2023-04-06T15:19:03.386Z,62.20
2023-04-06T15:21:32.213Z,62.20
2023-04-06T15:24:00.501Z,62.20
2023-04-06T15:26:28.470Z,62.30
2023-04-06T15:28:56.466Z,62.30
2023-04-06T15:31:36.868Z,62.20
2023-04-06T15:34:08.878Z,61.80
2023-04-06T15:36:37.384Z,61.80
2023-04-06T15:39:09.307Z,61.70
2023-04-06T15:41:37.343Z,61.90
2023-04-06T15:44:05.530Z,61.90
2023-04-06T15:46:34.029Z,61.80
2023-04-06T15:49:02.232Z,61.90
2023-04-06T15:51:31.638Z,61.90
2023-04-06T15:53:59.738Z,61.90
2023-04-06T15:56:30.512Z,62.00
2023-04-06T15:58:58.520Z,62.00
2023-04-06T16:01:26.861Z,61.60
2023-04-06T16:03:55.165Z,61.80
2023-04-06T16:06:24.335Z,61.80
2023-04-06T16:08:55.769Z,61.80
2023-04-06T16:11:23.795Z,61.80
2023-04-06T16:13:55.286Z,62.00
2023-04-06T16:16:23.790Z,62.00
2023-04-06T16:18:51.765Z,61.80
2023-04-06T16:21:19.828Z,61.50
2023-04-06T16:23:49.353Z,61.10
2023-04-06T16:26:18.945Z,61.20
2023-04-06T16:28:47.401Z,61.30
2023-04-06T16:31:20.111Z,61.40
2023-04-06T16:33:48.207Z,61.30
2023-04-06T16:36:16.502Z,61.40
2023-04-06T16:38:46.935Z,61.50
2023-04-06T16:41:16.098Z,61.70
2023-04-06T16:43:46.678Z,61.70
2023-04-06T16:46:14.936Z,61.70
2023-04-06T16:48:42.944Z,61.70
2023-04-06T16:51:11.124Z,61.90
2023-04-06T16:53:41.614Z,62.00
2023-04-06T16:56:12.256Z,62.00
2023-04-06T16:58:40.445Z,62.70
2023-04-06T17:01:09.868Z,62.80
2023-04-06T17:03:37.953Z,61.80
2023-04-06T17:06:06.327Z,61.40
2023-04-06T17:08:34.357Z,61.40
2023-04-06T17:11:04.591Z,61.50
2023-04-06T17:13:36.101Z,61.60
2023-04-06T17:16:04.214Z,61.60
2023-04-06T17:18:34.754Z,61.80
2023-04-06T17:21:05.224Z,61.70
2023-04-06T17:23:33.311Z,61.80
2023-04-06T17:26:04.064Z,61.90
2023-04-06T17:28:33.640Z,62.00
2023-04-06T17:31:01.906Z,61.90
2023-04-06T17:33:32.496Z,61.80
2023-04-06T17:36:02.009Z,61.90
2023-04-06T17:38:30.033Z,62.00
2023-04-06T17:40:58.071Z,62.00
2023-04-06T17:43:26.230Z,61.90
2023-04-06T17:45:54.281Z,61.90
2023-04-06T17:48:22.496Z,61.80
2023-04-06T17:50:50.452Z,61.60
2023-04-06T17:53:20.426Z,61.30
2023-04-06T17:55:48.455Z,61.20
2023-04-06T17:58:16.865Z,61.40
2023-04-06T18:00:44.869Z,61.50
2023-04-06T18:03:15.215Z,61.50
2023-04-06T18:05:43.299Z,61.60
2023-04-06T18:08:12.724Z,61.70
2023-04-06T18:10:45.980Z,61.90
2023-04-06T18:13:14.012Z,62.00
2023-04-06T18:15:42.047Z,61.90
2023-04-06T18:18:10.288Z,61.80
2023-04-06T18:20:41.520Z,61.90
2023-04-06T18:23:09.748Z,61.90
2023-04-06T18:25:41.327Z,62.00
2023-04-06T18:28:10.638Z,62.10
2023-04-06T18:30:38.753Z,62.00
2023-04-06T18:33:07.637Z,61.90
2023-04-06T18:35:35.788Z,61.80
2023-04-06T18:38:03.788Z,61.50
2023-04-06T18:40:33.046Z,61.30
2023-04-06T18:43:03.781Z,61.40
2023-04-06T18:45:33.371Z,61.50
2023-04-06T18:48:01.818Z,61.50
2023-04-06T18:50:29.838Z,61.60
2023-04-06T18:52:57.816Z,61.70
2023-04-06T18:55:26.622Z,61.80
2023-04-06T18:57:57.670Z,61.80
2023-04-06T19:00:27.331Z,61.90
2023-04-06T19:02:55.636Z,61.90
2023-04-06T19:05:28.009Z,61.90
2023-04-06T19:07:56.047Z,62.00
2023-04-06T19:10:24.215Z,62.10
2023-04-06T19:12:52.234Z,62.20
2023-04-06T19:15:20.463Z,62.10
2023-04-06T19:17:49.833Z,62.80
2023-04-06T19:20:20.713Z,62.10
2023-04-06T19:22:50.064Z,62.20
2023-04-06T19:25:20.200Z,62.20
2023-04-06T19:27:48.455Z,62.20
2023-04-06T19:30:16.795Z,62.20
2023-04-06T19:32:44.946Z,62.10
2023-04-06T19:35:14.404Z,61.90
2023-04-06T19:37:44.202Z,61.60
2023-04-06T19:40:12.474Z,61.30
2023-04-06T19:42:40.538Z,61.20
2023-04-06T19:45:10.515Z,61.40
2023-04-06T19:47:38.521Z,61.40
2023-04-06T19:50:07.496Z,61.40
2023-04-06T19:52:37.226Z,61.60
2023-04-06T19:55:05.667Z,61.60
2023-04-06T19:57:33.772Z,61.70
2023-04-06T20:00:01.827Z,61.80
2023-04-06T20:02:38.046Z,61.80
2023-04-06T20:05:06.887Z,61.80
2023-04-06T20:07:37.576Z,61.90
2023-04-06T20:10:07.637Z,61.90
2023-04-06T20:12:36.029Z,61.90
2023-04-06T20:15:04.267Z,61.90
2023-04-06T20:17:32.326Z,62.00
2023-04-06T20:20:00.400Z,61.80
2023-04-06T20:22:28.607Z,61.60
2023-04-06T20:24:57.974Z,61.60
2023-04-06T20:27:26.015Z,61.50
2023-04-06T20:29:53.998Z,61.60
2023-04-06T20:32:22.129Z,61.70
2023-04-06T20:34:50.519Z,61.60
2023-04-06T20:37:19.497Z,61.70
2023-04-06T20:39:47.740Z,61.90
2023-04-06T20:42:18.020Z,61.90
2023-04-06T20:44:46.687Z,61.90
2023-04-06T20:47:14.663Z,61.90
2023-04-06T20:49:42.626Z,61.90
2023-04-06T20:52:10.800Z,61.90
2023-04-06T20:54:38.739Z,61.90
2023-04-06T20:57:06.701Z,61.90
2023-04-06T20:59:37.760Z,62.10
2023-04-06T21:02:05.819Z,62.20
2023-04-06T21:04:35.405Z,62.10
2023-04-06T21:07:04.746Z,62.00
2023-04-06T21:09:33.140Z,61.60
2023-04-06T21:12:01.320Z,61.30
2023-04-06T21:14:29.243Z,62.00
2023-04-06T21:16:59.842Z,61.40
2023-04-06T21:19:27.951Z,61.40
2023-04-06T21:21:56.226Z,61.40
2023-04-06T21:24:24.272Z,61.50
2023-04-06T21:26:52.231Z,61.60
2023-04-06T21:29:20.270Z,61.80
2023-04-06T21:31:48.220Z,61.90
2023-04-06T21:34:17.723Z,61.70
2023-04-06T21:36:46.077Z,61.60
2023-04-06T21:39:14.022Z,61.80
2023-04-06T21:41:42.014Z,61.90
2023-04-06T21:44:10.017Z,61.90
2023-04-06T21:46:38.140Z,62.00
2023-04-06T21:49:06.174Z,62.00
2023-04-06T21:51:35.473Z,61.90
2023-04-06T21:54:03.433Z,61.60
2023-04-06T21:56:31.422Z,61.40
2023-04-06T21:58:59.436Z,61.50
2023-04-06T22:01:28.170Z,61.60
2023-04-06T22:03:56.435Z,61.70
2023-04-06T22:06:25.766Z,61.50
2023-04-06T22:08:55.277Z,61.70
2023-04-06T22:11:23.301Z,61.80
2023-04-06T22:13:51.300Z,61.70
2023-04-06T22:16:19.642Z,61.90
2023-04-06T22:18:47.748Z,61.90
2023-04-06T22:21:15.804Z,61.80
2023-04-06T22:23:43.734Z,61.90
2023-04-06T22:26:13.074Z,62.00
2023-04-06T22:28:42.125Z,62.00
2023-04-06T22:31:10.124Z,62.10
2023-04-06T22:33:38.051Z,62.00
2023-04-06T22:36:06.565Z,61.90
2023-04-06T22:38:34.672Z,62.00
2023-04-06T22:41:02.807Z,62.10
2023-04-06T22:43:32.319Z,62.10
2023-04-06T22:46:00.399Z,62.10
2023-04-06T22:48:28.386Z,62.10
2023-04-06T22:50:56.685Z,62.00
2023-04-06T22:53:24.677Z,61.90
2023-04-06T22:55:52.679Z,61.60
2023-04-06T22:58:23.161Z,61.30
2023-04-06T23:00:56.218Z,61.20
2023-04-06T23:03:24.270Z,61.40
2023-04-06T23:05:52.329Z,61.40
2023-04-06T23:08:21.380Z,61.30
2023-04-06T23:10:50.774Z,61.40
2023-04-06T23:13:18.700Z,62.40
2023-04-06T23:15:46.689Z,61.70
2023-04-06T23:18:16.338Z,61.80
2023-04-06T23:20:44.305Z,61.90
2023-04-06T23:23:12.434Z,61.80
2023-04-06T23:25:40.426Z,61.90
2023-04-06T23:28:08.399Z,62.00
2023-04-06T23:30:36.376Z,61.90
2023-04-06T23:33:05.036Z,62.20
2023-04-06T23:35:34.450Z,62.00
2023-04-06T23:38:05.315Z,61.90
2023-04-06T23:40:33.267Z,61.60
2023-04-06T23:43:01.158Z,61.70
2023-04-06T23:45:29.116Z,61.70
2023-04-06T23:47:57.126Z,61.80
2023-04-06T23:50:25.380Z,61.80
2023-04-06T23:52:54.709Z,61.70
2023-04-06T23:55:22.652Z,61.80
2023-04-06T23:57:50.755Z,61.90
